sensor_id;sensor_type;location;lat;lon;timestamp;pressure;altitude;pressure_sealevel;temperature;humidity
57990;BME280;58373;51.824;5.564;2024-02-23T00:01:23;98723.66;;;3.62;100.00
57990;BME280;58373;51.824;5.564;2024-02-23T00:03:48;98718.53;;;3.62;100.00
57990;BME280;58373;51.824;5.564;2024-02-23T00:06:14;98722.59;;;3.75;100.00
57990;BME280;58373;51.824;5.564;2024-02-23T00:08:39;98725.56;;;3.80;100.00
57990;BME280;58373;51.824;5.564;2024-02-23T00:11:06;98717.19;;;3.78;100.00
57990;BME280;58373;51.824;5.564;2024-02-23T00:13:31;98710.44;;;3.77;100.00
57990;BME280;58373;51.824;5.564;2024-02-23T00:15:56;98711.25;;;3.87;100.00
57990;BME280;58373;51.824;5.564;2024-02-23T00:18:22;98696.41;;;3.81;100.00
57990;BME280;58373;51.824;5.564;2024-02-23T00:20:47;98709.38;;;3.69;100.00
57990;BME280;58373;51.824;5.564;2024-02-23T00:23:12;98715.84;;;3.73;100.00
57990;BME280;58373;51.824;5.564;2024-02-23T00:25:37;98718.81;;;3.69;100.00
57990;BME280;58373;51.824;5.564;2024-02-23T00:28:03;98726.34;;;3.61;100.00
57990;BME280;58373;51.824;5.564;2024-02-23T00:30:28;98706.38;;;3.64;100.00
57990;BME280;58373;51.824;5.564;2024-02-23T00:32:53;98718.25;;;3.65;100.00
57990;BME280;58373;51.824;5.564;2024-02-23T00:35:18;98725.53;;;3.60;100.00
57990;BME280;58373;51.824;5.564;2024-02-23T00:37:44;98725.53;;;3.60;100.00
57990;BME280;58373;51.824;5.564;2024-02-23T00:40:09;98736.59;;;3.61;100.00
57990;BME280;58373;51.824;5.564;2024-02-23T00:42:35;98735.00;;;3.69;100.00
57990;BME280;58373;51.824;5.564;2024-02-23T00:45:00;98730.53;;;3.62;100.00
57990;BME280;58373;51.824;5.564;2024-02-23T00:47:26;98736.06;;;3.57;100.00
57990;BME280;58373;51.824;5.564;2024-02-23T00:49:51;98736.34;;;3.64;100.00
57990;BME280;58373;51.824;5.564;2024-02-23T00:52:17;98733.81;;;3.73;100.00
57990;BME280;58373;51.824;5.564;2024-02-23T00:54:42;98748.50;;;3.62;100.00
57990;BME280;58373;51.824;5.564;2024-02-23T00:57:07;98741.84;;;3.59;100.00
57990;BME280;58373;51.824;5.564;2024-02-23T00:59:33;98750.50;;;3.58;100.00
57990;BME280;58373;51.824;5.564;2024-02-23T01:01:58;98750.50;;;3.58;100.00
57990;BME280;58373;51.824;5.564;2024-02-23T01:04:23;98755.19;;;3.53;100.00
57990;BME280;58373;51.824;5.564;2024-02-23T01:06:48;98746.84;;;3.61;100.00
57990;BME280;58373;51.824;5.564;2024-02-23T01:09:14;98747.94;;;3.58;100.00
57990;BME280;58373;51.824;5.564;2024-02-23T01:11:41;98753.91;;;3.68;100.00
57990;BME280;58373;51.824;5.564;2024-02-23T01:14:06;98766.53;;;3.60;100.00
57990;BME280;58373;51.824;5.564;2024-02-23T01:16:31;98767.53;;;3.79;100.00
57990;BME280;58373;51.824;5.564;2024-02-23T01:18:57;98779.34;;;3.60;100.00
57990;BME280;58373;51.824;5.564;2024-02-23T01:21:22;98786.00;;;3.63;100.00
57990;BME280;58373;51.824;5.564;2024-02-23T01:23:47;98795.16;;;3.65;100.00
57990;BME280;58373;51.824;5.564;2024-02-23T01:26:13;98790.31;;;3.62;100.00
57990;BME280;58373;51.824;5.564;2024-02-23T01:28:38;98800.81;;;3.59;100.00
57990;BME280;58373;51.824;5.564;2024-02-23T01:31:03;98789.47;;;3.52;100.00
57990;BME280;58373;51.824;5.564;2024-02-23T01:33:29;98800.00;;;3.59;100.00
57990;BME280;58373;51.824;5.564;2024-02-23T01:35:54;98794.34;;;3.65;100.00
57990;BME280;58373;51.824;5.564;2024-02-23T01:38:21;98801.91;;;3.57;100.00
57990;BME280;58373;51.824;5.564;2024-02-23T01:40:47;98798.94;;;3.61;100.00
57990;BME280;58373;51.824;5.564;2024-02-23T01:43:13;98790.28;;;3.53;100.00
57990;BME280;58373;51.824;5.564;2024-02-23T01:45:38;98809.16;;;3.52;100.00
57990;BME280;58373;51.824;5.564;2024-02-23T01:48:03;98807.03;;;3.57;100.00
57990;BME280;58373;51.824;5.564;2024-02-23T01:50:29;98804.84;;;3.52;100.00
57990;BME280;58373;51.824;5.564;2024-02-23T01:52:55;98806.22;;;3.56;100.00
57990;BME280;58373;51.824;5.564;2024-02-23T01:55:21;98811.59;;;3.53;100.00
57990;BME280;58373;51.824;5.564;2024-02-23T01:57:47;98821.03;;;3.53;100.00
57990;BME280;58373;51.824;5.564;2024-02-23T02:00:16;98821.84;;;3.53;100.00
57990;BME280;58373;51.824;5.564;2024-02-23T02:02:43;98818.09;;;3.57;100.00
57990;BME280;58373;51.824;5.564;2024-02-23T02:05:08;98823.13;;;3.38;100.00
57990;BME280;58373;51.824;5.564;2024-02-23T02:07:33;98812.66;;;3.51;100.00
57990;BME280;58373;51.824;5.564;2024-02-23T02:09:59;98818.31;;;3.54;100.00
57990;BME280;58373;51.824;5.564;2024-02-23T02:12:28;98808.47;;;3.50;100.00
57990;BME280;58373;51.824;5.564;2024-02-23T02:14:53;98821.59;;;3.56;100.00
57990;BME280;58373;51.824;5.564;2024-02-23T02:17:19;98825.34;;;3.52;100.00
57990;BME280;58373;51.824;5.564;2024-02-23T02:19:47;98829.09;;;3.48;100.00
57990;BME280;58373;51.824;5.564;2024-02-23T02:22:13;98824.50;;;3.42;100.00
57990;BME280;58373;51.824;5.564;2024-02-23T02:24:38;98832.31;;;3.40;100.00
57990;BME280;58373;51.824;5.564;2024-02-23T02:27:05;98822.25;;;3.58;100.00
57990;BME280;58373;51.824;5.564;2024-02-23T02:29:31;98835.06;;;3.58;100.00
57990;BME280;58373;51.824;5.564;2024-02-23T02:31:57;98841.09;;;3.47;100.00
57990;BME280;58373;51.824;5.564;2024-02-23T02:34:22;98854.22;;;3.54;100.00
57990;BME280;58373;51.824;5.564;2024-02-23T02:36:47;98855.03;;;3.55;100.00
57990;BME280;58373;51.824;5.564;2024-02-23T02:39:12;98844.47;;;3.48;100.00
57990;BME280;58373;51.824;5.564;2024-02-23T02:41:38;98838.91;;;3.43;100.00
57990;BME280;58373;51.824;5.564;2024-02-23T02:44:03;98843.44;;;3.60;100.00
57990;BME280;58373;51.824;5.564;2024-02-23T02:46:28;98852.81;;;3.40;100.00
57990;BME280;58373;51.824;5.564;2024-02-23T02:48:53;98852.25;;;3.37;100.00
57990;BME280;58373;51.824;5.564;2024-02-23T02:51:19;98863.34;;;3.47;100.00
57990;BME280;58373;51.824;5.564;2024-02-23T02:53:44;98849.97;;;3.43;100.00
57990;BME280;58373;51.824;5.564;2024-02-23T02:56:09;98858.28;;;3.57;100.00
57990;BME280;58373;51.824;5.564;2024-02-23T02:58:34;98866.44;;;3.41;100.00
57990;BME280;58373;51.824;5.564;2024-02-23T03:01:00;98861.16;;;3.33;100.00
57990;BME280;58373;51.824;5.564;2024-02-23T03:03:25;98856.56;;;3.36;100.00
57990;BME280;58373;51.824;5.564;2024-02-23T03:05:50;98858.59;;;3.33;100.00
57990;BME280;58373;51.824;5.564;2024-02-23T03:08:15;98861.91;;;3.24;100.00
57990;BME280;58373;51.824;5.564;2024-02-23T03:10:40;98859.19;;;3.25;100.00
57990;BME280;58373;51.824;5.564;2024-02-23T03:13:06;98868.63;;;3.25;100.00
57990;BME280;58373;51.824;5.564;2024-02-23T03:15:31;98878.88;;;3.25;100.00
57990;BME280;58373;51.824;5.564;2024-02-23T03:17:56;98875.66;;;3.23;100.00
57990;BME280;58373;51.824;5.564;2024-02-23T03:20:22;98880.50;;;3.26;100.00
57990;BME280;58373;51.824;5.564;2024-02-23T03:22:47;98879.56;;;3.27;100.00
57990;BME280;58373;51.824;5.564;2024-02-23T03:25:12;98884.31;;;3.31;100.00
57990;BME280;58373;51.824;5.564;2024-02-23T03:27:38;98881.88;;;3.30;100.00
57990;BME280;58373;51.824;5.564;2024-02-23T03:30:03;98881.81;;;3.41;100.00
57990;BME280;58373;51.824;5.564;2024-02-23T03:32:29;98874.88;;;3.32;100.00
57990;BME280;58373;51.824;5.564;2024-02-23T03:35:01;98878.13;;;3.34;100.00
57990;BME280;58373;51.824;5.564;2024-02-23T03:37:26;98876.53;;;3.33;100.00
57990;BME280;58373;51.824;5.564;2024-02-23T03:39:51;98884.81;;;3.25;100.00
57990;BME280;58373;51.824;5.564;2024-02-23T03:42:17;98882.75;;;3.40;100.00
57990;BME280;58373;51.824;5.564;2024-02-23T03:44:42;98891.47;;;3.28;100.00
57990;BME280;58373;51.824;5.564;2024-02-23T03:47:07;98888.91;;;3.28;100.00
57990;BME280;58373;51.824;5.564;2024-02-23T03:49:33;98890.06;;;3.24;100.00
57990;BME280;58373;51.824;5.564;2024-02-23T03:51:58;98891.25;;;3.19;100.00
57990;BME280;58373;51.824;5.564;2024-02-23T03:54:23;98895.44;;;3.20;100.00
57990;BME280;58373;51.824;5.564;2024-02-23T03:56:49;98895.88;;;3.26;100.00
57990;BME280;58373;51.824;5.564;2024-02-23T03:59:14;98895.78;;;3.27;100.00
57990;BME280;58373;51.824;5.564;2024-02-23T04:01:39;98891.91;;;3.33;100.00
57990;BME280;58373;51.824;5.564;2024-02-23T04:04:05;98898.81;;;3.21;100.00
57990;BME280;58373;51.824;5.564;2024-02-23T04:06:30;98905.88;;;3.29;100.00
57990;BME280;58373;51.824;5.564;2024-02-23T04:08:55;98906.13;;;3.26;100.00
57990;BME280;58373;51.824;5.564;2024-02-23T04:11:21;98903.38;;;3.17;100.00
57990;BME280;58373;51.824;5.564;2024-02-23T04:13:46;98909.19;;;3.19;100.00
57990;BME280;58373;51.824;5.564;2024-02-23T04:16:11;98904.50;;;3.25;100.00
57990;BME280;58373;51.824;5.564;2024-02-23T04:18:36;98909.91;;;3.22;100.00
57990;BME280;58373;51.824;5.564;2024-02-23T04:21:01;98904.19;;;3.18;100.00
57990;BME280;58373;51.824;5.564;2024-02-23T04:23:27;98911.31;;;3.14;100.00
57990;BME280;58373;51.824;5.564;2024-02-23T04:25:52;98921.00;;;3.32;100.00
57990;BME280;58373;51.824;5.564;2024-02-23T04:28:17;98918.50;;;3.20;100.00
57990;BME280;58373;51.824;5.564;2024-02-23T04:30:42;98925.00;;;3.25;100.00
57990;BME280;58373;51.824;5.564;2024-02-23T04:33:07;98939.00;;;3.20;100.00
57990;BME280;58373;51.824;5.564;2024-02-23T04:35:33;98934.66;;;3.21;100.00
57990;BME280;58373;51.824;5.564;2024-02-23T04:37:58;98937.56;;;3.28;100.00
57990;BME280;58373;51.824;5.564;2024-02-23T04:40:23;98939.06;;;3.30;100.00
57990;BME280;58373;51.824;5.564;2024-02-23T04:42:48;98938.13;;;3.31;100.00
57990;BME280;58373;51.824;5.564;2024-02-23T04:45:13;98929.13;;;3.37;100.00
57990;BME280;58373;51.824;5.564;2024-02-23T04:47:38;98934.75;;;3.31;100.00
57990;BME280;58373;51.824;5.564;2024-02-23T04:50:05;98944.94;;;3.42;100.00
57990;BME280;58373;51.824;5.564;2024-02-23T04:52:31;98946.31;;;3.46;100.00
57990;BME280;58373;51.824;5.564;2024-02-23T04:54:56;98947.19;;;3.35;100.00
57990;BME280;58373;51.824;5.564;2024-02-23T04:57:21;98938.63;;;3.46;100.00
57990;BME280;58373;51.824;5.564;2024-02-23T04:59:47;98938.31;;;3.39;100.00
57990;BME280;58373;51.824;5.564;2024-02-23T05:02:12;98942.63;;;3.39;100.00
57990;BME280;58373;51.824;5.564;2024-02-23T05:04:38;98954.50;;;3.40;100.00
57990;BME280;58373;51.824;5.564;2024-02-23T05:07:03;98955.84;;;3.44;100.00
57990;BME280;58373;51.824;5.564;2024-02-23T05:09:29;98948.31;;;3.42;100.00
57990;BME280;58373;51.824;5.564;2024-02-23T05:11:54;98956.13;;;3.41;100.00
57990;BME280;58373;51.824;5.564;2024-02-23T05:14:20;98957.75;;;3.42;100.00
57990;BME280;58373;51.824;5.564;2024-02-23T05:16:45;98958.41;;;3.44;100.00
57990;BME280;58373;51.824;5.564;2024-02-23T05:19:10;98948.88;;;3.46;100.00
57990;BME280;58373;51.824;5.564;2024-02-23T05:21:35;98959.66;;;3.50;100.00
57990;BME280;58373;51.824;5.564;2024-02-23T05:24:00;98960.25;;;3.53;100.00
57990;BME280;58373;51.824;5.564;2024-02-23T05:26:26;98946.47;;;3.54;100.00
57990;BME280;58373;51.824;5.564;2024-02-23T05:28:51;98945.72;;;3.63;100.00
57990;BME280;58373;51.824;5.564;2024-02-23T05:31:17;98952.75;;;3.61;100.00
57990;BME280;58373;51.824;5.564;2024-02-23T05:33:42;98951.09;;;3.60;100.00
57990;BME280;58373;51.824;5.564;2024-02-23T05:36:07;98956.00;;;3.63;100.00
57990;BME280;58373;51.824;5.564;2024-02-23T05:38:33;98952.47;;;3.64;100.00
57990;BME280;58373;51.824;5.564;2024-02-23T05:40:58;98948.97;;;3.65;100.00
57990;BME280;58373;51.824;5.564;2024-02-23T05:43:23;98947.09;;;3.67;100.00
57990;BME280;58373;51.824;5.564;2024-02-23T05:45:48;98948.38;;;3.83;100.00
57990;BME280;58373;51.824;5.564;2024-02-23T05:48:14;98943.34;;;3.71;100.00
57990;BME280;58373;51.824;5.564;2024-02-23T05:50:39;98942.28;;;3.74;100.00
57990;BME280;58373;51.824;5.564;2024-02-23T05:53:04;98941.56;;;3.72;100.00
57990;BME280;58373;51.824;5.564;2024-02-23T05:55:30;98950.06;;;3.72;100.00
57990;BME280;58373;51.824;5.564;2024-02-23T05:57:55;98937.97;;;3.75;100.00
57990;BME280;58373;51.824;5.564;2024-02-23T06:00:21;98936.34;;;3.73;100.00
57990;BME280;58373;51.824;5.564;2024-02-23T06:02:46;98949.84;;;3.76;100.00
57990;BME280;58373;51.824;5.564;2024-02-23T06:05:12;98941.19;;;3.77;100.00
57990;BME280;58373;51.824;5.564;2024-02-23T06:07:37;98949.03;;;3.75;100.00
57990;BME280;58373;51.824;5.564;2024-02-23T06:10:03;98946.59;;;3.73;100.00
57990;BME280;58373;51.824;5.564;2024-02-23T06:12:28;98937.16;;;3.74;100.00
57990;BME280;58373;51.824;5.564;2024-02-23T06:14:53;98935.53;;;3.73;100.00
57990;BME280;58373;51.824;5.564;2024-02-23T06:17:20;98941.47;;;3.73;100.00
57990;BME280;58373;51.824;5.564;2024-02-23T06:19:45;98939.56;;;3.76;100.00
57990;BME280;58373;51.824;5.564;2024-02-23T06:22:10;98939.34;;;3.79;100.00
57990;BME280;58373;51.824;5.564;2024-02-23T06:24:37;98947.94;;;3.78;100.00
57990;BME280;58373;51.824;5.564;2024-02-23T06:27:02;98944.47;;;3.79;100.00
57990;BME280;58373;51.824;5.564;2024-02-23T06:29:28;98951.22;;;3.80;100.00
57990;BME280;58373;51.824;5.564;2024-02-23T06:31:53;98951.22;;;3.80;100.00
57990;BME280;58373;51.824;5.564;2024-02-23T06:34:18;98951.22;;;3.80;100.00
57990;BME280;58373;51.824;5.564;2024-02-23T06:36:44;98949.31;;;3.82;100.00
57990;BME280;58373;51.824;5.564;2024-02-23T06:39:09;98950.13;;;3.82;100.00
57990;BME280;58373;51.824;5.564;2024-02-23T06:41:34;98955.03;;;3.85;100.00
57990;BME280;58373;51.824;5.564;2024-02-23T06:43:59;98955.81;;;3.86;100.00
57990;BME280;58373;51.824;5.564;2024-02-23T06:46:24;98951.50;;;3.86;100.00
57990;BME280;58373;51.824;5.564;2024-02-23T06:48:50;98952.31;;;3.87;100.00
57990;BME280;58373;51.824;5.564;2024-02-23T06:51:15;98946.25;;;3.88;100.00
57990;BME280;58373;51.824;5.564;2024-02-23T06:53:41;98946.91;;;3.90;100.00
57990;BME280;58373;51.824;5.564;2024-02-23T06:56:06;98934.78;;;3.92;100.00
57990;BME280;58373;51.824;5.564;2024-02-23T06:58:31;98938.88;;;4.04;100.00
57990;BME280;58373;51.824;5.564;2024-02-23T07:00:56;98955.03;;;3.95;100.00
57990;BME280;58373;51.824;5.564;2024-02-23T07:03:22;98946.59;;;4.04;100.00
57990;BME280;58373;51.824;5.564;2024-02-23T07:05:47;98952.59;;;3.93;100.00
57990;BME280;58373;51.824;5.564;2024-02-23T07:08:14;98946.44;;;3.96;100.00
57990;BME280;58373;51.824;5.564;2024-02-23T07:10:39;98947.34;;;3.95;100.00
57990;BME280;58373;51.824;5.564;2024-02-23T07:13:05;98946.16;;;3.99;100.00
57990;BME280;58373;51.824;5.564;2024-02-23T07:15:30;98944.25;;;4.01;100.00
57990;BME280;58373;51.824;5.564;2024-02-23T07:17:57;98939.41;;;3.98;100.00
57990;BME280;58373;51.824;5.564;2024-02-23T07:20:23;98944.25;;;4.01;100.00
57990;BME280;58373;51.824;5.564;2024-02-23T07:22:48;98944.00;;;4.04;100.00
57990;BME280;58373;51.824;5.564;2024-02-23T07:25:19;98944.00;;;4.04;100.00
57990;BME280;58373;51.824;5.564;2024-02-23T07:27:45;98937.28;;;4.03;100.00
57990;BME280;58373;51.824;5.564;2024-02-23T07:30:11;98943.06;;;4.05;100.00
57990;BME280;58373;51.824;5.564;2024-02-23T07:32:36;98945.63;;;4.05;100.00
57990;BME280;58373;51.824;5.564;2024-02-23T07:35:01;98946.34;;;4.07;100.00
57990;BME280;58373;51.824;5.564;2024-02-23T07:37:28;98946.44;;;4.06;100.00
57990;BME280;58373;51.824;5.564;2024-02-23T07:39:53;98948.63;;;4.10;100.00
57990;BME280;58373;51.824;5.564;2024-02-23T07:42:19;98952.13;;;4.09;100.00
57990;BME280;58373;51.824;5.564;2024-02-23T07:44:44;98946.06;;;4.10;100.00
57990;BME280;58373;51.824;5.564;2024-02-23T07:47:09;98953.00;;;4.19;100.00
57990;BME280;58373;51.824;5.564;2024-02-23T07:49:35;98947.56;;;4.22;100.00
57990;BME280;58373;51.824;5.564;2024-02-23T07:52:00;98939.25;;;4.30;100.00
57990;BME280;58373;51.824;5.564;2024-02-23T07:54:25;98942.19;;;4.25;100.00
57990;BME280;58373;51.824;5.564;2024-02-23T07:56:50;98945.19;;;4.31;100.00
57990;BME280;58373;51.824;5.564;2024-02-23T07:59:16;98934.91;;;4.31;100.00
57990;BME280;58373;51.824;5.564;2024-02-23T08:01:41;98939.78;;;4.34;100.00
57990;BME280;58373;51.824;5.564;2024-02-23T08:04:07;98931.13;;;4.35;100.00
57990;BME280;58373;51.824;5.564;2024-02-23T08:06:32;98939.78;;;4.34;100.00
57990;BME280;58373;51.824;5.564;2024-02-23T08:08:57;98940.59;;;4.34;100.00
57990;BME280;58373;51.824;5.564;2024-02-23T08:11:22;98931.13;;;4.35;100.00
57990;BME280;58373;51.824;5.564;2024-02-23T08:13:48;98941.41;;;4.35;100.00
57990;BME280;58373;51.824;5.564;2024-02-23T08:16:15;98943.00;;;4.36;100.00
57990;BME280;58373;51.824;5.564;2024-02-23T08:18:40;98941.41;;;4.35;100.00
57990;BME280;58373;51.824;5.564;2024-02-23T08:21:05;98930.88;;;4.38;100.00
57990;BME280;58373;51.824;5.564;2024-02-23T08:23:31;98930.34;;;4.44;100.00
57990;BME280;58373;51.824;5.564;2024-02-23T08:25:56;98933.72;;;4.44;100.00
57990;BME280;58373;51.824;5.564;2024-02-23T08:28:23;98922.78;;;4.52;100.00
57990;BME280;58373;51.824;5.564;2024-02-23T08:30:48;98927.66;;;4.55;100.00
57990;BME280;58373;51.824;5.564;2024-02-23T08:33:13;98916.31;;;4.67;100.00
57990;BME280;58373;51.824;5.564;2024-02-23T08:35:39;98915.50;;;4.67;100.00
57990;BME280;58373;51.824;5.564;2024-02-23T08:38:04;98916.31;;;4.67;100.00
57990;BME280;58373;51.824;5.564;2024-02-23T08:40:29;98919.69;;;4.68;100.00
57990;BME280;58373;51.824;5.564;2024-02-23T08:42:54;98922.25;;;4.68;100.00
57990;BME280;58373;51.824;5.564;2024-02-23T08:45:19;98907.66;;;4.68;100.00
57990;BME280;58373;51.824;5.564;2024-02-23T08:47:45;98910.94;;;4.70;100.00
57990;BME280;58373;51.824;5.564;2024-02-23T08:50:10;98913.50;;;4.70;100.00
57990;BME280;58373;51.824;5.564;2024-02-23T08:52:35;98910.94;;;4.70;100.00
57990;BME280;58373;51.824;5.564;2024-02-23T08:55:00;98905.78;;;4.70;100.00
57990;BME280;58373;51.824;5.564;2024-02-23T08:57:27;98914.41;;;4.69;100.00
57990;BME280;58373;51.824;5.564;2024-02-23T08:59:52;98910.63;;;4.73;100.00
57990;BME280;58373;51.824;5.564;2024-02-23T09:02:17;98911.44;;;4.74;100.00
57990;BME280;58373;51.824;5.564;2024-02-23T09:04:45;98915.78;;;4.73;100.00
57990;BME280;58373;51.824;5.564;2024-02-23T09:07:11;98911.59;;;4.72;100.00
57990;BME280;58373;51.824;5.564;2024-02-23T09:09:37;98909.69;;;4.74;100.00
57990;BME280;58373;51.824;5.564;2024-02-23T09:12:02;98919.00;;;4.75;100.00
57990;BME280;58373;51.824;5.564;2024-02-23T09:14:27;98908.47;;;4.78;100.00
57990;BME280;58373;51.824;5.564;2024-02-23T09:16:52;98925.91;;;4.75;100.00
57990;BME280;58373;51.824;5.564;2024-02-23T09:19:21;98920.91;;;4.73;100.00
57990;BME280;58373;51.824;5.564;2024-02-23T09:21:46;98910.38;;;4.76;100.00
57990;BME280;58373;51.824;5.564;2024-02-23T09:24:14;98907.69;;;4.78;100.00
57990;BME280;58373;51.824;5.564;2024-02-23T09:26:40;98905.63;;;4.82;100.00
57990;BME280;58373;51.824;5.564;2024-02-23T09:29:05;98905.78;;;4.90;100.00
57990;BME280;58373;51.824;5.564;2024-02-23T09:31:30;98909.31;;;4.89;100.00
57990;BME280;58373;51.824;5.564;2024-02-23T09:33:56;98905.22;;;4.96;100.00
57990;BME280;58373;51.824;5.564;2024-02-23T09:36:22;98907.41;;;5.00;100.00
57990;BME280;58373;51.824;5.564;2024-02-23T09:38:47;98911.19;;;5.06;100.00
57990;BME280;58373;51.824;5.564;2024-02-23T09:41:20;98924.69;;;5.08;100.00
57990;BME280;58373;51.824;5.564;2024-02-23T09:43:46;98915.78;;;5.12;100.00
57990;BME280;58373;51.824;5.564;2024-02-23T09:46:11;98926.31;;;5.09;100.00
57990;BME280;58373;51.824;5.564;2024-02-23T09:48:39;98918.47;;;5.11;100.00
57990;BME280;58373;51.824;5.564;2024-02-23T09:51:05;98933.47;;;5.15;100.00
57990;BME280;58373;51.824;5.564;2024-02-23T09:53:30;98942.28;;;5.22;100.00
57990;BME280;58373;51.824;5.564;2024-02-23T09:55:56;98947.13;;;5.25;100.00
57990;BME280;58373;51.824;5.564;2024-02-23T09:58:22;98952.25;;;5.25;100.00
57990;BME280;58373;51.824;5.564;2024-02-23T10:00:49;98959.84;;;5.17;100.00
57990;BME280;58373;51.824;5.564;2024-02-23T10:03:15;98954.47;;;5.11;100.00
57990;BME280;58373;51.824;5.564;2024-02-23T10:05:40;98951.59;;;5.04;100.00
57990;BME280;58373;51.824;5.564;2024-02-23T10:08:05;98957.97;;;5.00;100.00
57990;BME280;58373;51.824;5.564;2024-02-23T10:10:32;98959.84;;;4.98;100.00
57990;BME280;58373;51.824;5.564;2024-02-23T10:12:58;98971.47;;;5.02;100.00
57990;BME280;58373;51.824;5.564;2024-02-23T10:15:23;98974.44;;;4.97;100.00
57990;BME280;58373;51.824;5.564;2024-02-23T10:17:48;98965.81;;;5.08;100.00
57990;BME280;58373;51.824;5.564;2024-02-23T10:20:13;98968.78;;;5.03;100.00
57990;BME280;58373;51.824;5.564;2024-02-23T10:22:39;98975.41;;;5.06;100.00
57990;BME280;58373;51.824;5.564;2024-02-23T10:25:04;98967.03;;;5.23;100.00
57990;BME280;58373;51.824;5.564;2024-02-23T10:27:29;98969.31;;;5.26;100.00
57990;BME280;58373;51.824;5.564;2024-02-23T10:29:55;98972.56;;;5.28;100.00
57990;BME280;58373;51.824;5.564;2024-02-23T10:32:20;98974.69;;;5.33;100.00
57990;BME280;58373;51.824;5.564;2024-02-23T10:34:47;98979.03;;;5.32;100.00
57990;BME280;58373;51.824;5.564;2024-02-23T10:37:12;98983.66;;;5.29;100.00
57990;BME280;58373;51.824;5.564;2024-02-23T10:39:37;98983.78;;;5.27;100.00
57990;BME280;58373;51.824;5.564;2024-02-23T10:42:03;98984.88;;;5.35;100.00
57990;BME280;58373;51.824;5.564;2024-02-23T10:44:30;98982.28;;;5.35;100.00
57990;BME280;58373;51.824;5.564;2024-02-23T10:46:55;99000.16;;;5.26;100.00
57990;BME280;58373;51.824;5.564;2024-02-23T10:49:21;99012.03;;;5.27;100.00
57990;BME280;58373;51.824;5.564;2024-02-23T10:51:50;99000.44;;;5.23;100.00
57990;BME280;58373;51.824;5.564;2024-02-23T10:54:17;99005.56;;;5.23;100.00
57990;BME280;58373;51.824;5.564;2024-02-23T10:56:46;99007.19;;;5.24;100.00
57990;BME280;58373;51.824;5.564;2024-02-23T10:59:11;99004.47;;;5.26;100.00
57990;BME280;58373;51.824;5.564;2024-02-23T11:01:36;99024.38;;;5.33;100.00
57990;BME280;58373;51.824;5.564;2024-02-23T11:04:04;99012.03;;;5.37;100.00
57990;BME280;58373;51.824;5.564;2024-02-23T11:06:29;99017.19;;;5.37;100.00
57990;BME280;58373;51.824;5.564;2024-02-23T11:09:04;99018.81;;;5.38;100.00
57990;BME280;58373;51.824;5.564;2024-02-23T11:11:29;99017.72;;;5.50;100.00
57990;BME280;58373;51.824;5.564;2024-02-23T11:13:56;99012.56;;;5.50;100.00
57990;BME280;58373;51.824;5.564;2024-02-23T11:16:22;99016.63;;;5.53;100.00
57990;BME280;58373;51.824;5.564;2024-02-23T11:18:50;99013.13;;;5.54;100.00
57990;BME280;58373;51.824;5.564;2024-02-23T11:21:25;99018.25;;;5.54;100.00
57990;BME280;58373;51.824;5.564;2024-02-23T11:24:01;99010.69;;;5.62;100.00
57990;BME280;58373;51.824;5.564;2024-02-23T11:26:27;99024.59;;;5.69;100.00
57990;BME280;58373;51.824;5.564;2024-02-23T11:28:53;99021.09;;;5.70;100.00
57990;BME280;58373;51.824;5.564;2024-02-23T11:31:19;99009.69;;;5.73;100.00
57990;BME280;58373;51.824;5.564;2024-02-23T11:33:48;99011.44;;;5.72;100.00
57990;BME280;58373;51.824;5.564;2024-02-23T11:36:21;99018.22;;;5.73;100.00
57990;BME280;58373;51.824;5.564;2024-02-23T11:38:46;99021.75;;;5.72;100.00
57990;BME280;58373;51.824;5.564;2024-02-23T11:41:12;99018.22;;;5.73;100.00
57990;BME280;58373;51.824;5.564;2024-02-23T11:43:37;99019.88;;;5.74;100.00
57990;BME280;58373;51.824;5.564;2024-02-23T11:46:03;99024.44;;;5.80;100.00
57990;BME280;58373;51.824;5.564;2024-02-23T11:48:28;99025.81;;;5.75;100.00
57990;BME280;58373;51.824;5.564;2024-02-23T11:50:53;99024.72;;;5.77;100.00
57990;BME280;58373;51.824;5.564;2024-02-23T11:53:18;99028.25;;;5.76;100.00
57990;BME280;58373;51.824;5.564;2024-02-23T11:55:46;99036.63;;;5.78;100.00
57990;BME280;58373;51.824;5.564;2024-02-23T11:58:12;99036.63;;;5.78;100.00
57990;BME280;58373;51.824;5.564;2024-02-23T12:00:39;99034.03;;;5.78;100.00
57990;BME280;58373;51.824;5.564;2024-02-23T12:03:04;99037.44;;;5.79;100.00
57990;BME280;58373;51.824;5.564;2024-02-23T12:05:30;99037.31;;;5.80;100.00
57990;BME280;58373;51.824;5.564;2024-02-23T12:07:55;99036.34;;;5.81;100.00
57990;BME280;58373;51.824;5.564;2024-02-23T12:10:21;99044.47;;;5.86;100.00
57990;BME280;58373;51.824;5.564;2024-02-23T12:12:47;99046.09;;;5.88;100.00
57990;BME280;58373;51.824;5.564;2024-02-23T12:15:12;99044.75;;;5.83;100.00
57990;BME280;58373;51.824;5.564;2024-02-23T12:17:37;99041.22;;;5.84;100.00
57990;BME280;58373;51.824;5.564;2024-02-23T12:20:11;99048.81;;;5.86;100.00
57990;BME280;58373;51.824;5.564;2024-02-23T12:22:36;99036.88;;;5.95;100.00
57990;BME280;58373;51.824;5.564;2024-02-23T12:25:01;99050.44;;;5.97;100.00
57990;BME280;58373;51.824;5.564;2024-02-23T12:27:27;99038.63;;;6.04;100.00
57990;BME280;58373;51.824;5.564;2024-02-23T12:29:54;99044.75;;;6.03;100.00
57990;BME280;58373;51.824;5.564;2024-02-23T12:32:20;99042.16;;;6.03;100.00
57990;BME280;58373;51.824;5.564;2024-02-23T12:34:45;99039.59;;;6.03;100.00
57990;BME280;58373;51.824;5.564;2024-02-23T12:37:11;99047.72;;;6.08;100.00
57990;BME280;58373;51.824;5.564;2024-02-23T12:39:39;99051.34;;;6.15;99.85
57990;BME280;58373;51.824;5.564;2024-02-23T12:42:04;99054.19;;;6.12;99.99
57990;BME280;58373;51.824;5.564;2024-02-23T12:44:29;99054.19;;;6.12;100.00
57990;BME280;58373;51.824;5.564;2024-02-23T12:46:54;99057.31;;;6.06;100.00
57990;BME280;58373;51.824;5.564;2024-02-23T12:49:20;99061.50;;;6.07;100.00
57990;BME280;58373;51.824;5.564;2024-02-23T12:51:45;99064.59;;;6.20;99.45